Portada
METAR-TAF:

METAR-TAF

Aeroports :

Logronyo, Espanya

latitud: 42-27N, longitud: 002-20W, altitud: 353 m

Observació

L'informe es va fer fa 44 minuts, a les 17:30 UTC
Vent 3 kt del Nord, variant entre Nord-Oest i Est/Nord-Est
Temperatura 20°C
Humitat 64%
Pressió 1018 hPa
Visibilitat 10 km o més
Cel ennuvolat a una alçada de 4500 ft

METAR: LELO 191730Z 01003KT 310V060 9999 BKN045 20/13 Q1018

Hora: 20:14 (18:14 UTC)

Pronòstic

L'informe es va fer fa 1 hora i 14 minuts, a les 17:00 UTC
Pronòstic vàlid del 19 a les 18 UTC al 20 a les 03 UTC
Vent 5 kt amb direcció variable
Visibilitat 10 km o més
Núvols disperses a una alçada de 4000 ft
Núvols disperses a una alçada de 6000 ft
Probabilitat 30% :
Temporalment
l' 19 a les 18 UTC al 20 a les 03 UTC
Visibilitat: 3000 m
Cel ennuvolat a una alçada de 1200 ft
pluja

TAF: LELO 191700Z 1918/2003 VRB05KT 9999 SCT040 SCT060 PROB30 TEMPO 1918/2003 3000 RA BKN012

Observacions i pronòstics meteorològics de més de 4000 aeroports (METAR i TAF).

Les estacions disponibles són els punts grocs i vermells al mapa.

Posi el ratolí al punt desitjat per veure el nom de l'estació.

Feu clic per veure les observacions i els pronòstics meteorològics.

Per canviar el mapa: feu clic els botons verds amb una creu de color negre per apropar; al botó verd amb un guió per allunyar la imatge; o en les fletxes verdes per a mapes adjacents.


METAR-TAF: